Time;durP1;ratioP1;P1;durP2;ratioP2;P2;SDS_P1;SDS_P2;PMS_P1;PMS_P2;Temp;Humidity;BMP_temperature;BMP_pressure;BME280_temperature;BME280_humidity;BME280_pressure;Samples;Min_cycle;Max_cycle;Signal;HPM_P1;HPM_P2
2019/08/02 00:01:29;;;;;;;7.5;3.5;;;;;;;19.22;61.60742;960.2406;;;;
2019/08/02 00:03:51;;;;;;;6.5;3.3;;;;;;;19.1;62.66016;960.1867;;;;
2019/08/02 00:06:17;;;;;;;9.6;3.3;;;;;;;19.25;61.94043;960.0988;;;;
2019/08/02 00:08:42;;;;;;;6.5;3;;;;;;;19.28;61.68652;960.1339;;;;
2019/08/02 00:11:07;;;;;;;9.7;3.6;;;;;;;19.1;61.67285;960.162;;;;
2019/08/02 00:13:32;;;;;;;9.2;3.3;;;;;;;19.03;62.54395;960.1298;;;;
2019/08/02 00:15:58;;;;;;;8.1;3.6;;;;;;;19;63.16113;960.0933;;;;
2019/08/02 00:18:23;;;;;;;8.7;4.1;;;;;;;18.96;64.29297;960.0589;;;;
2019/08/02 00:20:48;;;;;;;10.4;4.3;;;;;;;18.92;63.81836;960.0413;;;;
2019/08/02 00:23:14;;;;;;;9.4;3.9;;;;;;;19.05;63.52051;960.0974;;;;
2019/08/02 00:25:39;;;;;;;6.4;3.6;;;;;;;19.1;64.16211;960.1091;;;;
2019/08/02 00:28:04;;;;;;;7.4;3.8;;;;;;;19.07;64.36816;960.0251;;;;
2019/08/02 00:30:29;;;;;;;11.3;4.3;;;;;;;19.06;63.29883;960.0477;;;;
2019/08/02 00:32:54;;;;;;;18.8;4.8;;;;;;;19.01;63.39746;960.0839;;;;
2019/08/02 00:35:20;;;;;;;7.6;3.8;;;;;;;19.03;62.59082;960.0224;;;;
2019/08/02 00:37:45;;;;;;;11.5;4.6;;;;;;;19.01;62.79883;959.9938;;;;
2019/08/02 00:40:10;;;;;;;13;4.4;;;;;;;19.02;63.28125;959.9812;;;;
2019/08/02 00:42:36;;;;;;;11.4;4;;;;;;;19.07;61.52832;959.9781;;;;
2019/08/02 00:45:01;;;;;;;7.5;4.1;;;;;;;19.1;61.9668;959.9645;;;;
2019/08/02 00:47:26;;;;;;;10.8;4;;;;;;;19.02;62.55371;959.882;;;;
2019/08/02 00:49:52;;;;;;;6.9;3.3;;;;;;;19.22;61.1377;959.8141;;;;
2019/08/02 00:52:17;;;;;;;7.4;3.1;;;;;;;19.1;62.00293;959.7637;;;;
2019/08/02 00:54:42;;;;;;;9.4;3.1;;;;;;;19.02;61.46387;959.7589;;;;
2019/08/02 00:57:07;;;;;;;6.4;3;;;;;;;19.16;60.9541;959.7595;;;;
2019/08/02 00:59:32;;;;;;;8.5;3.1;;;;;;;19.14;61.99512;959.735;;;;
2019/08/02 01:01:57;;;;;;;7;3.2;;;;;;;19.07;61.1416;959.7723;;;;
2019/08/02 01:04:22;;;;;;;5.5;2.9;;;;;;;19.03;61.74609;959.7119;;;;
2019/08/02 01:06:48;;;;;;;8.4;3.3;;;;;;;18.86;61.4043;959.7654;;;;
2019/08/02 01:09:13;;;;;;;6.8;2.9;;;;;;;18.8;62.01855;959.7421;;;;
2019/08/02 01:11:38;;;;;;;7.9;3.3;;;;;;;19.05;60.78613;959.6644;;;;
2019/08/02 01:14:03;;;;;;;6.5;3.3;;;;;;;18.97;61.67871;959.6616;;;;
2019/08/02 01:16:28;;;;;;;6.9;3.3;;;;;;;18.9;65.15332;959.6945;;;;
2019/08/02 01:18:53;;;;;;;7.4;2.7;;;;;;;18.78;63.43555;959.781;;;;
2019/08/02 01:21:19;;;;;;;7.7;3.2;;;;;;;18.73;63.67383;959.8406;;;;
2019/08/02 01:23:44;;;;;;;6.1;2.9;;;;;;;18.69;63.97363;959.8718;;;;
2019/08/02 01:26:09;;;;;;;7.6;3;;;;;;;18.6;65.07422;959.8523;;;;
2019/08/02 01:28:34;;;;;;;6.1;3;;;;;;;18.59;64.58008;959.8822;;;;
2019/08/02 01:30:59;;;;;;;6.9;3.5;;;;;;;18.53;64.66504;959.8689;;;;
2019/08/02 01:33:24;;;;;;;7.9;3.1;;;;;;;18.51;65.3877;959.8303;;;;
2019/08/02 01:35:50;;;;;;;6.3;3;;;;;;;18.52;64.48828;959.7833;;;;
2019/08/02 01:38:15;;;;;;;8.7;3.2;;;;;;;18.56;64.3291;959.8042;;;;
2019/08/02 01:40:40;;;;;;;6.7;3.2;;;;;;;18.64;63.79004;959.7267;;;;
2019/08/02 01:43:05;;;;;;;6.7;2.9;;;;;;;18.68;65.99902;959.6897;;;;
2019/08/02 01:45:30;;;;;;;7.7;3.1;;;;;;;18.67;64.5918;959.6345;;;;
2019/08/02 01:47:56;;;;;;;5.4;3;;;;;;;18.63;64.97266;959.5886;;;;
2019/08/02 01:50:21;;;;;;;9;3.5;;;;;;;18.59;67.13574;959.5669;;;;
2019/08/02 01:52:46;;;;;;;7.5;3.6;;;;;;;18.51;66.00879;959.5655;;;;
2019/08/02 01:55:11;;;;;;;8.3;3.5;;;;;;;18.42;66.14941;959.5217;;;;
2019/08/02 01:57:37;;;;;;;12.9;4.8;;;;;;;18.61;63.90332;959.5073;;;;
2019/08/02 02:00:02;;;;;;;8.1;4.3;;;;;;;18.55;65.81543;959.4529;;;;
2019/08/02 02:02:27;;;;;;;8.6;4.3;;;;;;;18.54;65.52246;959.4692;;;;
2019/08/02 02:04:52;;;;;;;10.9;4.6;;;;;;;18.45;64.8291;959.4869;;;;
2019/08/02 02:07:17;;;;;;;11.7;4.7;;;;;;;18.36;66.78418;959.5398;;;;
2019/08/02 02:09:43;;;;;;;9.4;4.5;;;;;;;18.31;67.92383;959.5522;;;;
2019/08/02 02:12:08;;;;;;;10.4;4.8;;;;;;;18.18;66.66309;959.5228;;;;
2019/08/02 02:14:33;;;;;;;9.6;5;;;;;;;18.11;67.77832;959.6498;;;;
2019/08/02 02:16:59;;;;;;;10.1;4.9;;;;;;;18.13;67.59375;959.6167;;;;
2019/08/02 02:19:24;;;;;;;9.3;4.6;;;;;;;18.22;66.34082;959.5968;;;;
2019/08/02 02:21:49;;;;;;;7.8;4.7;;;;;;;18.23;67.02246;959.6147;;;;
2019/08/02 02:26:40;;;;;;;10;4.5;;;;;;;18.21;68.20215;959.5275;;;;
2019/08/02 02:29:05;;;;;;;11.9;4.5;;;;;;;18.27;67.98926;959.5334;;;;
2019/08/02 02:31:30;;;;;;;8.4;4.1;;;;;;;18.3;67.73535;959.5043;;;;
2019/08/02 02:33:55;;;;;;;7.8;4.4;;;;;;;18.32;67.63281;959.4819;;;;
2019/08/02 02:36:20;;;;;;;8.4;4.1;;;;;;;18.34;69.20703;959.4207;;;;
2019/08/02 02:38:45;;;;;;;10;4.5;;;;;;;18.28;70.64844;959.4684;;;;
2019/08/02 02:41:10;;;;;;;8.6;4;;;;;;;18.36;68.17871;959.4763;;;;
2019/08/02 02:43:36;;;;;;;8.7;4.1;;;;;;;18.45;67.40723;959.4942;;;;
2019/08/02 02:46:01;;;;;;;8.4;3.8;;;;;;;18.48;67.05957;959.5905;;;;
2019/08/02 02:48:27;;;;;;;8.4;3.6;;;;;;;18.51;67.22754;959.6454;;;;
2019/08/02 02:50:52;;;;;;;8.3;3.7;;;;;;;18.37;67.32422;959.6572;;;;
2019/08/02 02:53:17;;;;;;;7.4;3.8;;;;;;;18.44;68.21289;959.5986;;;;
2019/08/02 02:55:42;;;;;;;8.7;4;;;;;;;18.55;67.26953;959.5016;;;;
2019/08/02 02:58:08;;;;;;;7.4;3.3;;;;;;;18.57;66.95703;959.4844;;;;
2019/08/02 03:00:33;;;;;;;8.7;3.8;;;;;;;18.47;66.80078;959.4108;;;;
2019/08/02 03:02:58;;;;;;;8;3.6;;;;;;;18.44;67.63867;959.3394;;;;
2019/08/02 03:05:23;;;;;;;7.8;3.7;;;;;;;18.29;68.22559;959.3411;;;;
2019/08/02 03:07:48;;;;;;;7.6;3.5;;;;;;;18.25;69.41406;959.2806;;;;
2019/08/02 03:10:13;;;;;;;8.2;3.3;;;;;;;18.39;67.97168;959.2458;;;;
2019/08/02 03:12:38;;;;;;;10.1;3.7;;;;;;;18.33;67.2002;959.2291;;;;
2019/08/02 03:15:03;;;;;;;6.9;3.3;;;;;;;18.28;67.25098;959.2297;;;;
2019/08/02 03:17:28;;;;;;;9.5;3.4;;;;;;;18.28;67.70801;959.1984;;;;
2019/08/02 03:19:54;;;;;;;7.8;3.6;;;;;;;18.24;67.58691;959.1674;;;;
2019/08/02 03:22:19;;;;;;;6;3.3;;;;;;;18.23;66.8457;959.1355;;;;
2019/08/02 03:24:44;;;;;;;8.4;3.4;;;;;;;18.35;65.78711;959.1581;;;;
2019/08/02 03:27:10;;;;;;;6.8;3.2;;;;;;;18.35;66.13867;959.2092;;;;
2019/08/02 03:29:35;;;;;;;8.5;3.8;;;;;;;18.63;66.08594;959.171;;;;
2019/08/02 03:32:00;;;;;;;6.9;3.3;;;;;;;18.72;65.83008;959.1226;;;;
2019/08/02 03:34:25;;;;;;;6.6;3.6;;;;;;;18.41;67.55273;959.0887;;;;
2019/08/02 03:36:50;;;;;;;7.6;3.5;;;;;;;18.46;67.66602;959.0552;;;;
2019/08/02 03:39:16;;;;;;;8.2;3.7;;;;;;;18.33;69.00586;959.0219;;;;
2019/08/02 03:41:41;;;;;;;6.6;3.5;;;;;;;18.28;69.47656;958.9403;;;;
2019/08/02 03:44:06;;;;;;;9;3.8;;;;;;;18.25;70.08105;958.8045;;;;
2019/08/02 03:46:31;;;;;;;8.9;3.5;;;;;;;18.25;69.66016;958.8251;;;;
2019/08/02 03:48:57;;;;;;;7.5;3.5;;;;;;;18.15;69.42188;958.817;;;;
2019/08/02 03:51:22;;;;;;;7.1;3.8;;;;;;;18.16;70.14941;958.8205;;;;
2019/08/02 03:53:48;;;;;;;8.3;4;;;;;;;18.16;70.34961;958.724;;;;
2019/08/02 03:56:13;;;;;;;7;3.6;;;;;;;18.2;69.23145;958.7036;;;;
2019/08/02 03:58:38;;;;;;;11.2;4.2;;;;;;;18.07;70.19336;958.7119;;;;
2019/08/02 04:02:29;;;;;;;8.7;3.9;;;;;;;17.94;70.96973;958.6191;;;;
2019/08/02 04:04:54;;;;;;;8.4;4.1;;;;;;;18.01;70.47754;958.6514;;;;
2019/08/02 04:07:19;;;;;;;7.7;3.8;;;;;;;17.99;71.86621;958.7085;;;;
2019/08/02 04:09:44;;;;;;;8.1;4;;;;;;;17.93;71.56445;958.7355;;;;
2019/08/02 04:12:09;;;;;;;10.6;4.2;;;;;;;18.03;70.65625;958.7236;;;;
2019/08/02 04:16:24;;;;;;;8.1;4.3;;;;;;;18.14;71.05957;958.7736;;;;
2019/08/02 04:18:50;;;;;;;7.8;4.2;;;;;;;18.15;70.82715;958.7742;;;;
2019/08/02 04:21:15;;;;;;;8.8;3.9;;;;;;;18.24;70.26855;958.7729;;;;
2019/08/02 04:23:40;;;;;;;7.1;4.1;;;;;;;18.24;70.38477;958.8524;;;;
2019/08/02 04:26:05;;;;;;;9.9;4.8;;;;;;;18.18;71.54688;958.8753;;;;
2019/08/02 04:28:30;;;;;;;9.9;4.4;;;;;;;18.15;71.01465;958.9111;;;;
2019/08/02 04:30:55;;;;;;;9.7;4.2;;;;;;;18.25;69.46191;958.8803;;;;
2019/08/02 04:33:20;;;;;;;8.4;3.8;;;;;;;18.29;70.97852;958.9294;;;;
2019/08/02 04:35:45;;;;;;;7.2;3.7;;;;;;;18.24;69.07422;958.8737;;;;
2019/08/02 04:38:10;;;;;;;8;3.8;;;;;;;18.17;70.99414;958.8244;;;;
2019/08/02 04:40:35;;;;;;;7.3;3.9;;;;;;;18.09;70.87695;958.8624;;;;
2019/08/02 04:43:00;;;;;;;11.5;4.4;;;;;;;18.11;70.83301;958.8564;;;;
2019/08/02 04:45:25;;;;;;;8.1;4.5;;;;;;;18.15;70.13574;958.8436;;;;
2019/08/02 04:47:51;;;;;;;11.1;5;;;;;;;18.26;70.07129;958.8423;;;;
2019/08/02 04:50:16;;;;;;;9.6;4.9;;;;;;;18.36;70.46191;958.7899;;;;
2019/08/02 04:52:41;;;;;;;9.6;4.3;;;;;;;18.25;70.95996;958.7739;;;;
2019/08/02 04:55:06;;;;;;;11.7;4.5;;;;;;;18.16;72.49121;958.7567;;;;
2019/08/02 04:57:31;;;;;;;15.9;4.3;;;;;;;18.19;71.8418;958.7961;;;;
2019/08/02 04:59:56;;;;;;;13.8;4.7;;;;;;;18.19;72.91895;958.7592;;;;
2019/08/02 05:04:46;;;;;;;17.2;4.7;;;;;;;18.44;70.29883;958.7997;;;;
2019/08/02 05:07:12;;;;;;;14.5;5.2;;;;;;;18.36;71.07129;958.8361;;;;
2019/08/02 05:09:37;;;;;;;12.5;4.9;;;;;;;18.41;70.50586;958.8428;;;;
2019/08/02 05:12:02;;;;;;;12.1;4.4;;;;;;;18.2;70.60156;958.9114;;;;
2019/08/02 05:14:27;;;;;;;11.7;4.4;;;;;;;18.25;71.15918;958.8522;;;;
2019/08/02 05:16:52;;;;;;;8.5;4.3;;;;;;;18.28;70.81348;958.8463;;;;
2019/08/02 05:19:17;;;;;;;6.1;3.8;;;;;;;18.39;69.17871;958.8794;;;;
2019/08/02 05:21:42;;;;;;;9.1;4;;;;;;;18.27;69.25391;958.8345;;;;
2019/08/02 05:24:07;;;;;;;10.7;4.2;;;;;;;18.27;69.73438;958.8;;;;
2019/08/02 05:26:32;;;;;;;10.9;4.1;;;;;;;18.16;70.36035;958.7925;;;;
2019/08/02 05:28:58;;;;;;;8.8;4.4;;;;;;;18.22;70.83887;958.7678;;;;
2019/08/02 05:31:23;;;;;;;16.5;5.6;;;;;;;18.17;72.12988;958.7575;;;;
2019/08/02 05:33:48;;;;;;;10.1;4.5;;;;;;;18.28;70.32129;958.7935;;;;
2019/08/02 05:36:13;;;;;;;9.2;4.9;;;;;;;18.32;69.82324;958.7525;;;;
2019/08/02 05:38:38;;;;;;;12.8;5.5;;;;;;;18.35;68.78613;958.8387;;;;
2019/08/02 05:41:03;;;;;;;12.2;5;;;;;;;18.59;68.31836;958.8158;;;;
2019/08/02 05:43:29;;;;;;;14.3;5.4;;;;;;;18.65;68.31641;958.8835;;;;
2019/08/02 05:45:54;;;;;;;11.3;4.5;;;;;;;18.61;68.56934;958.8461;;;;
2019/08/02 05:48:20;;;;;;;11;4.5;;;;;;;18.69;67.37402;958.9225;;;;
2019/08/02 05:50:45;;;;;;;10;4.2;;;;;;;18.86;65.85059;958.98;;;;
2019/08/02 05:53:10;;;;;;;13.6;4.4;;;;;;;18.74;67.36914;959.0056;;;;
2019/08/02 05:55:36;;;;;;;11.1;4.1;;;;;;;18.65;68.63281;959.0106;;;;
2019/08/02 05:58:01;;;;;;;9.7;4.3;;;;;;;18.33;70.17578;959.0047;;;;
2019/08/02 06:00:26;;;;;;;10.7;4;;;;;;;18.74;68.27148;959.028;;;;
2019/08/02 06:02:53;;;;;;;10.6;4.1;;;;;;;18.55;69.84961;959.0342;;;;
2019/08/02 06:05:16;;;;;;;11.5;4.1;;;;;;;18.63;68.75977;959.0181;;;;
2019/08/02 06:07:41;;;;;;;8.9;4.1;;;;;;;18.49;68.22168;959.0475;;;;
2019/08/02 06:10:06;;;;;;;10;4.1;;;;;;;18.7;67.86719;959.0587;;;;
2019/08/02 06:12:32;;;;;;;8.6;3.8;;;;;;;18.89;66.52441;959.0308;;;;
2019/08/02 06:14:57;;;;;;;11;4.3;;;;;;;18.89;66.3252;958.9836;;;;
2019/08/02 06:17:22;;;;;;;10.2;3.8;;;;;;;19.06;65.57617;959.0034;;;;
2019/08/02 06:19:47;;;;;;;7.9;3.6;;;;;;;19.17;65.82617;958.9266;;;;
2019/08/02 06:22:13;;;;;;;8.7;3.9;;;;;;;19.22;64.90625;958.9763;;;;
2019/08/02 06:24:38;;;;;;;11.3;3.8;;;;;;;19.26;64.16211;958.9483;;;;
2019/08/02 06:27:03;;;;;;;10.1;4;;;;;;;19.24;64.75684;958.97;;;;
2019/08/02 06:29:28;;;;;;;9.8;4;;;;;;;19.27;64.91504;958.9448;;;;
2019/08/02 06:31:53;;;;;;;10.5;4.1;;;;;;;19.21;65.14063;958.9575;;;;
2019/08/02 06:34:18;;;;;;;8.9;3.6;;;;;;;19.29;63.24902;958.9847;;;;
2019/08/02 06:36:44;;;;;;;10.8;3.4;;;;;;;19.46;63.74316;959.0286;;;;
2019/08/02 06:39:09;;;;;;;8.8;3.5;;;;;;;19.5;61.71777;959.0295;;;;
2019/08/02 06:41:35;;;;;;;10.4;4;;;;;;;19.39;65.36719;959.0653;;;;
2019/08/02 06:44:00;;;;;;;8;3.4;;;;;;;19.21;63.13184;959.1088;;;;
2019/08/02 06:46:25;;;;;;;7.9;3.3;;;;;;;19.13;60.43359;959.1047;;;;
2019/08/02 06:48:51;;;;;;;7.7;3.5;;;;;;;19.19;60.58203;959.1287;;;;
2019/08/02 06:51:16;;;;;;;6;2.9;;;;;;;19.48;59.82227;959.1465;;;;
2019/08/02 06:53:41;;;;;;;6.4;2.9;;;;;;;19.3;61.30176;959.1272;;;;
2019/08/02 06:56:06;;;;;;;8.5;3.6;;;;;;;19.43;58.66602;959.1141;;;;
2019/08/02 06:58:31;;;;;;;9.7;3.6;;;;;;;19.52;59.10156;959.139;;;;
2019/08/02 07:00:56;;;;;;;9.4;3.3;;;;;;;19.74;59.94141;959.1515;;;;
2019/08/02 07:03:22;;;;;;;9.6;3.8;;;;;;;19.83;59.19043;959.0853;;;;
2019/08/02 07:05:47;;;;;;;8.9;3.7;;;;;;;19.93;58.93262;959.0992;;;;
2019/08/02 07:08:12;;;;;;;9.7;3.4;;;;;;;19.97;60.91211;959.0363;;;;
2019/08/02 07:10:37;;;;;;;9;3.5;;;;;;;20.14;58.00781;959.0067;;;;
2019/08/02 07:13:03;;;;;;;7.1;3.2;;;;;;;20.32;57.95996;958.9653;;;;
2019/08/02 07:15:28;;;;;;;7.6;3.1;;;;;;;20.44;57.77637;958.9659;;;;
2019/08/02 07:17:55;;;;;;;8.7;3.1;;;;;;;20.48;57.95703;958.9511;;;;
2019/08/02 07:22:43;;;;;;;6.8;3;;;;;;;20.43;55.97266;958.952;;;;
2019/08/02 07:25:09;;;;;;;7.4;3.4;;;;;;;20.44;56.46777;958.9511;;;;
2019/08/02 07:27:34;;;;;;;7.1;3;;;;;;;20.68;56.73438;958.9092;;;;
2019/08/02 07:29:59;;;;;;;6.2;2.9;;;;;;;20.76;55.4375;958.8791;;;;
2019/08/02 07:32:24;;;;;;;10.4;3;;;;;;;20.69;56.47754;958.8756;;;;
2019/08/02 07:34:49;;;;;;;6.8;3;;;;;;;20.62;56.32715;958.9086;;;;
2019/08/02 07:37:14;;;;;;;7.5;3.2;;;;;;;20.83;56.12988;958.8611;;;;
2019/08/02 07:39:40;;;;;;;6.7;2.4;;;;;;;21.03;54.65918;958.829;;;;
2019/08/02 07:42:05;;;;;;;7.6;2.9;;;;;;;21.22;54.19824;958.7885;;;;
2019/08/02 07:44:30;;;;;;;6.6;2.9;;;;;;;20.9;56.64648;958.8196;;;;
2019/08/02 07:46:56;;;;;;;5.1;2.8;;;;;;;21.01;56.94238;958.8287;;;;
2019/08/02 07:49:21;;;;;;;6.2;2.2;;;;;;;21.25;54.30762;958.8514;;;;
2019/08/02 07:51:46;;;;;;;6.7;2.8;;;;;;;21.39;55.63574;958.8872;;;;
2019/08/02 07:54:11;;;;;;;4.8;2.5;;;;;;;21.5;53.38379;958.8386;;;;
2019/08/02 07:56:37;;;;;;;7.5;2.7;;;;;;;21.42;53.66895;958.8293;;;;
2019/08/02 07:59:02;;;;;;;6.4;2.2;;;;;;;21.52;52.93652;958.8881;;;;
2019/08/02 08:01:27;;;;;;;8.7;2.5;;;;;;;21.62;53.69336;958.9327;;;;
2019/08/02 08:03:52;;;;;;;7.3;2.8;;;;;;;21.77;53.26172;958.9207;;;;
2019/08/02 08:06:17;;;;;;;8.3;2.8;;;;;;;21.75;53.4248;958.9315;;;;
2019/08/02 08:08:42;;;;;;;6.9;2.6;;;;;;;22.02;54.35645;958.935;;;;
2019/08/02 08:11:07;;;;;;;6.6;2.7;;;;;;;22.08;53.34668;958.9766;;;;
2019/08/02 08:13:33;;;;;;;6;2.5;;;;;;;21.95;53.49707;959.0112;;;;
2019/08/02 08:15:58;;;;;;;4.2;2.5;;;;;;;22.16;53.95801;958.9386;;;;
2019/08/02 08:18:23;;;;;;;8.3;2.7;;;;;;;22.04;53.97949;958.9278;;;;
2019/08/02 08:20:48;;;;;;;7.3;2.6;;;;;;;21.93;56.4834;958.9772;;;;
2019/08/02 08:23:13;;;;;;;5.9;2.5;;;;;;;22.15;52.95313;958.9571;;;;
2019/08/02 08:25:38;;;;;;;7.4;2.5;;;;;;;22.13;52.66699;958.9835;;;;
2019/08/02 08:28:04;;;;;;;7.5;2.3;;;;;;;22.14;54.0625;958.9789;;;;
2019/08/02 08:30:29;;;;;;;5.8;2.3;;;;;;;22.2;52.30957;959.0183;;;;
2019/08/02 08:32:54;;;;;;;6.3;2.2;;;;;;;22.15;51.91406;959.0359;;;;
2019/08/02 08:35:19;;;;;;;7.5;2.8;;;;;;;21.94;52.57324;958.9936;;;;
2019/08/02 08:37:44;;;;;;;6.9;2.6;;;;;;;21.96;54.53711;959.0337;;;;
2019/08/02 08:40:09;;;;;;;6.7;2.7;;;;;;;21.84;53.09375;959.0451;;;;
2019/08/02 08:42:34;;;;;;;6.9;2.6;;;;;;;21.73;55.28906;959.1256;;;;
2019/08/02 08:45:00;;;;;;;8.3;2.5;;;;;;;21.71;54.625;959.1197;;;;
2019/08/02 08:47:25;;;;;;;4.8;2.5;;;;;;;21.83;51.99414;959.0984;;;;
2019/08/02 08:49:50;;;;;;;7.1;2.4;;;;;;;21.83;51.68652;959.1805;;;;
2019/08/02 08:52:15;;;;;;;5.8;2;;;;;;;21.79;51.57617;959.1717;;;;
2019/08/02 08:54:41;;;;;;;4.7;2;;;;;;;21.91;50.69238;959.2067;;;;
2019/08/02 08:57:06;;;;;;;4.2;2.2;;;;;;;21.99;51.56445;959.2223;;;;
2019/08/02 08:59:31;;;;;;;5.7;1.9;;;;;;;22.03;53.26953;959.2161;;;;
2019/08/02 09:01:56;;;;;;;7.5;2.3;;;;;;;22.03;53.25781;959.2525;;;;
2019/08/02 09:04:21;;;;;;;7.2;2.2;;;;;;;22.08;51.75195;959.2341;;;;
2019/08/02 09:06:47;;;;;;;3.9;2.1;;;;;;;22.31;52.68945;959.2271;;;;
2019/08/02 09:09:12;;;;;;;6.1;2.2;;;;;;;22.45;51.9834;959.1948;;;;
2019/08/02 09:11:37;;;;;;;4.7;2.2;;;;;;;;;;;;;
2019/08/02 09:14:03;;;;;;;5.5;2.3;;;;;;;22.57;49.15918;959.1741;;;;
2019/08/02 09:16:28;;;;;;;6.2;2.2;;;;;;;22.72;53.24707;959.188;;;;
2019/08/02 09:18:53;;;;;;;4;1.8;;;;;;;22.95;47.99316;959.1359;;;;
2019/08/02 09:21:19;;;;;;;4.7;1.8;;;;;;;23;43.68848;959.1384;;;;
2019/08/02 09:23:44;;;;;;;5;1.9;;;;;;;22.82;46.78418;959.0452;;;;
2019/08/02 09:26:09;;;;;;;4.6;1.9;;;;;;;22.7;48.2627;959.0572;;;;
2019/08/02 09:28:34;;;;;;;5.4;1.9;;;;;;;22.75;44.38672;959.0225;;;;
2019/08/02 09:31:00;;;;;;;3.8;2;;;;;;;23.01;41.40527;958.9684;;;;
2019/08/02 09:33:25;;;;;;;6;2;;;;;;;23.09;43.03418;958.9319;;;;
2019/08/02 09:35:50;;;;;;;4.8;2.2;;;;;;;23.01;45.27734;958.9504;;;;
2019/08/02 09:38:15;;;;;;;5.9;2.3;;;;;;;23.17;44.76074;958.9933;;;;
2019/08/02 09:40:40;;;;;;;4.2;1.9;;;;;;;23.21;45.8291;958.9373;;;;
2019/08/02 09:43:05;;;;;;;6.7;2;;;;;;;23.02;46.6748;958.9398;;;;
2019/08/02 09:45:31;;;;;;;10;1.9;;;;;;;23.31;44.63184;958.9882;;;;
2019/08/02 09:47:56;;;;;;;8.6;2.2;;;;;;;23.38;44.54395;958.9927;;;;
2019/08/02 09:50:21;;;;;;;5.8;2;;;;;;;23.55;42.28613;958.9628;;;;
2019/08/02 09:52:46;;;;;;;3.6;1.9;;;;;;;23.46;41.53027;958.9416;;;;
2019/08/02 09:55:11;;;;;;;5.2;1.8;;;;;;;23.43;42.84277;958.9036;;;;
2019/08/02 09:57:36;;;;;;;7.7;2.3;;;;;;;23.35;42.89453;958.891;;;;
2019/08/02 10:00:01;;;;;;;5.9;2;;;;;;;23.39;42.6123;958.8867;;;;
2019/08/02 10:02:27;;;;;;;6.2;2.1;;;;;;;23.64;42.94531;958.8794;;;;
2019/08/02 10:04:52;;;;;;;5.4;2.3;;;;;;;23.4;42.47168;958.9016;;;;
2019/08/02 10:07:17;;;;;;;5.1;2;;;;;;;23.42;41.52637;958.907;;;;
2019/08/02 10:09:42;;;;;;;4.5;2.2;;;;;;;23.52;41.47559;958.8792;;;;
2019/08/02 10:12:07;;;;;;;6.5;2;;;;;;;23.54;42.42676;958.8633;;;;
2019/08/02 10:17:06;;;;;;;4.9;1.9;;;;;;;23.53;39.97266;958.8469;;;;
2019/08/02 10:19:31;;;;;;;4.9;1.7;;;;;;;23.61;40.55957;958.8438;;;;
2019/08/02 10:21:56;;;;;;;4.9;1.9;;;;;;;23.85;41.74414;958.8301;;;;
2019/08/02 10:24:21;;;;;;;6;2;;;;;;;23.74;42.01855;958.8014;;;;
2019/08/02 10:26:47;;;;;;;5.4;1.8;;;;;;;23.83;42.55957;958.7525;;;;
2019/08/02 10:29:12;;;;;;;6.2;2;;;;;;;23.81;42.73633;958.7039;;;;
2019/08/02 10:31:38;;;;;;;5.2;2.1;;;;;;;23.86;43.64258;958.6672;;;;
2019/08/02 10:34:02;;;;;;;6;2.2;;;;;;;23.88;42.37598;958.6075;;;;
2019/08/02 10:36:27;;;;;;;4.7;2.1;;;;;;;24.06;43.9834;958.6178;;;;
2019/08/02 10:38:52;;;;;;;5.1;1.8;;;;;;;24.09;42.52637;958.5703;;;;
2019/08/02 10:41:17;;;;;;;3.4;1.8;;;;;;;24.37;44.67969;958.55;;;;
2019/08/02 10:43:42;;;;;;;3.9;2.1;;;;;;;24.33;41.63574;958.4788;;;;
2019/08/02 10:46:07;;;;;;;3.7;1.8;;;;;;;24.02;43.54004;958.4858;;;;
2019/08/02 10:48:32;;;;;;;5;2;;;;;;;24.23;44.25;958.4467;;;;
2019/08/02 10:50:57;;;;;;;5.1;1.9;;;;;;;24.31;43.09375;958.4478;;;;
2019/08/02 10:53:23;;;;;;;4.7;2.2;;;;;;;24.48;41.89844;958.4269;;;;
2019/08/02 10:55:48;;;;;;;4.1;1.9;;;;;;;24.52;41.9375;958.3848;;;;
2019/08/02 10:58:13;;;;;;;6.7;2;;;;;;;24.34;41.58789;958.3778;;;;
2019/08/02 11:00:38;;;;;;;5.5;2.5;;;;;;;23.85;43.35742;958.397;;;;
2019/08/02 11:03:03;;;;;;;4.9;2;;;;;;;24.01;43.05273;958.3148;;;;
2019/08/02 11:05:28;;;;;;;5.2;2.3;;;;;;;23.91;43.67188;958.245;;;;
2019/08/02 11:07:54;;;;;;;5.1;1.9;;;;;;;23.93;45.02637;958.2043;;;;
2019/08/02 11:10:19;;;;;;;4.1;1.9;;;;;;;24.15;43.75488;958.1941;;;;
2019/08/02 11:12:44;;;;;;;6.2;2.3;;;;;;;24.01;43.13574;958.2172;;;;
2019/08/02 11:15:09;;;;;;;6.6;2.3;;;;;;;24.1;42.75293;958.2431;;;;
2019/08/02 11:17:35;;;;;;;5.6;2.6;;;;;;;24.55;43.11719;958.1967;;;;
2019/08/02 11:20:00;;;;;;;5.6;2.4;;;;;;;24.73;41.23145;958.2151;;;;
2019/08/02 11:22:25;;;;;;;7.3;2.3;;;;;;;24.57;41.44336;958.231;;;;
2019/08/02 11:24:50;;;;;;;5.9;2.4;;;;;;;24.46;42.24121;958.236;;;;
2019/08/02 11:27:15;;;;;;;5.3;2.3;;;;;;;24.43;41.94141;958.2178;;;;
2019/08/02 11:29:40;;;;;;;7.1;2.7;;;;;;;24.59;40.44727;958.2186;;;;
2019/08/02 11:32:05;;;;;;;5.7;2.2;;;;;;;24.32;42.52441;958.2236;;;;
2019/08/02 11:34:31;;;;;;;6.2;2.2;;;;;;;24.47;41.63574;958.2217;;;;
2019/08/02 11:36:56;;;;;;;8.1;2.6;;;;;;;24.53;42.15332;958.1917;;;;
2019/08/02 11:39:21;;;;;;;6.2;2.2;;;;;;;24.48;41.25586;958.1872;;;;
2019/08/02 11:41:46;;;;;;;7.4;2.5;;;;;;;24.38;41.6875;958.1563;;;;
2019/08/02 11:44:12;;;;;;;4.7;2.3;;;;;;;24.3;41.4541;958.2092;;;;
2019/08/02 11:46:37;;;;;;;5.7;2.1;;;;;;;24.4;40.3584;958.1687;;;;
2019/08/02 11:49:02;;;;;;;4.9;2.2;;;;;;;24.51;40.60547;958.1633;;;;
2019/08/02 11:51:27;;;;;;;6.7;2;;;;;;;24.56;40.5625;958.2048;;;;
2019/08/02 11:53:52;;;;;;;4.5;1.9;;;;;;;24.86;38.93848;958.163;;;;
2019/08/02 11:56:18;;;;;;;5.7;2.2;;;;;;;25;38.81836;958.2094;;;;
2019/08/02 11:58:43;;;;;;;4.1;1.9;;;;;;;24.64;38.01465;958.19;;;;
2019/08/02 12:01:11;;;;;;;6.1;2.2;;;;;;;24.7;38.5791;958.255;;;;
2019/08/02 12:03:33;;;;;;;4.5;2.2;;;;;;;24.46;39.22266;958.3061;;;;
2019/08/02 12:05:59;;;;;;;7.5;2.2;;;;;;;24.37;38.36133;958.3031;;;;
2019/08/02 12:08:24;;;;;;;7.5;2.2;;;;;;;24.51;39.58398;958.2333;;;;
2019/08/02 12:10:49;;;;;;;6.9;2.3;;;;;;;24.69;38.70898;958.2608;;;;
2019/08/02 12:13:14;;;;;;;7.2;1.9;;;;;;;24.8;37.95801;958.2772;;;;
2019/08/02 12:15:40;;;;;;;6.6;2.1;;;;;;;24.71;39.33984;958.3081;;;;
2019/08/02 12:18:07;;;;;;;7.8;2.4;;;;;;;24.8;38.63477;958.2605;;;;
2019/08/02 12:20:31;;;;;;;5.2;1.9;;;;;;;24.73;39.4375;958.3225;;;;
2019/08/02 12:22:57;;;;;;;4.5;2.1;;;;;;;24.94;37.44727;958.3173;;;;
2019/08/02 12:25:20;;;;;;;6.2;2.4;;;;;;;25.03;37.28613;958.2916;;;;
2019/08/02 12:27:46;;;;;;;3.6;2.1;;;;;;;25.05;36.86133;958.3196;;;;
2019/08/02 12:30:11;;;;;;;4.9;2;;;;;;;25.01;37.5127;958.3264;;;;
2019/08/02 12:32:36;;;;;;;5.1;2.1;;;;;;;25.15;37.35742;958.3136;;;;
2019/08/02 12:35:01;;;;;;;6.9;2;;;;;;;25.29;35.94043;958.3488;;;;
2019/08/02 12:37:27;;;;;;;4.1;2.1;;;;;;;25.36;35.38672;958.3881;;;;
2019/08/02 12:39:52;;;;;;;4.6;2;;;;;;;25.96;35.5293;958.416;;;;
2019/08/02 12:42:17;;;;;;;5.8;1.9;;;;;;;26.21;35.54883;958.4445;;;;
2019/08/02 12:44:42;;;;;;;6.3;2;;;;;;;26.3;34.70996;958.4194;;;;
2019/08/02 12:47:07;;;;;;;3.9;1.7;;;;;;;26.39;33.28516;958.4255;;;;
2019/08/02 12:49:32;;;;;;;6;2;;;;;;;26.46;32.70508;958.4445;;;;
2019/08/02 12:51:57;;;;;;;5.6;1.9;;;;;;;25.75;34.60742;958.4741;;;;
2019/08/02 12:54:23;;;;;;;4.4;1.9;;;;;;;25.63;36.71875;958.4654;;;;
2019/08/02 12:56:48;;;;;;;6.2;2.2;;;;;;;25.57;37.09473;958.5097;;;;
2019/08/02 12:59:13;;;;;;;6.5;1.8;;;;;;;25.88;35.88086;958.5758;;;;
2019/08/02 13:01:38;;;;;;;4.7;1.9;;;;;;;25.96;36.74512;958.5376;;;;
2019/08/02 13:04:04;;;;;;;3.9;1.8;;;;;;;25.78;36.01563;958.551;;;;
2019/08/02 13:06:29;;;;;;;3.3;1.7;;;;;;;25.69;36.33008;958.5375;;;;
2019/08/02 13:08:54;;;;;;;3.9;1.8;;;;;;;25.47;35.69336;958.4814;;;;
2019/08/02 13:11:20;;;;;;;7;1.9;;;;;;;25.46;35.92969;958.5296;;;;
2019/08/02 13:13:45;;;;;;;4.8;1.8;;;;;;;25.23;37.07813;958.4739;;;;
2019/08/02 13:16:10;;;;;;;3.8;1.6;;;;;;;25.2;36.51563;958.4804;;;;
2019/08/02 13:18:35;;;;;;;4.8;1.6;;;;;;;25.28;35.10645;958.4619;;;;
2019/08/02 13:21:00;;;;;;;5.6;1.7;;;;;;;25.16;36.37012;958.4375;;;;
2019/08/02 13:23:26;;;;;;;3.9;1.9;;;;;;;25.25;37.75781;958.392;;;;
2019/08/02 13:25:51;;;;;;;4.1;1.8;;;;;;;25.32;35.90723;958.4217;;;;
2019/08/02 13:28:16;;;;;;;4.8;1.5;;;;;;;25.05;34.92188;958.47;;;;
2019/08/02 13:30:41;;;;;;;3.7;1.4;;;;;;;25.04;35.97949;958.4405;;;;
2019/08/02 13:33:07;;;;;;;4.1;1.6;;;;;;;25.01;35.64355;958.3973;;;;
2019/08/02 13:35:32;;;;;;;4.4;2.1;;;;;;;24.92;38.00391;958.4434;;;;
2019/08/02 13:37:57;;;;;;;5.6;1.9;;;;;;;25.05;35.56348;958.4659;;;;
2019/08/02 13:40:22;;;;;;;6.9;2.2;;;;;;;25.16;35.45313;958.4825;;;;
2019/08/02 13:42:48;;;;;;;4.1;2.1;;;;;;;25.14;35.57129;958.4334;;;;
2019/08/02 13:45:14;;;;;;;4.4;1.7;;;;;;;25.21;36.10059;958.4131;;;;
2019/08/02 13:47:38;;;;;;;3.5;1.6;;;;;;;25.13;35.60645;958.4772;;;;
2019/08/02 13:50:03;;;;;;;5.1;1.7;;;;;;;25.11;36.66309;958.5293;;;;
2019/08/02 13:52:28;;;;;;;3.5;1.7;;;;;;;25.12;35.85547;958.5355;;;;
2019/08/02 13:54:53;;;;;;;4.6;1.7;;;;;;;25.03;36.19336;958.4988;;;;
2019/08/02 13:57:18;;;;;;;6.6;1.7;;;;;;;25.14;36.87988;958.5636;;;;
2019/08/02 13:59:43;;;;;;;7.2;1.8;;;;;;;25.18;36.12207;958.5812;;;;
2019/08/02 14:02:08;;;;;;;4.7;2;;;;;;;25.31;36.15625;958.6077;;;;
2019/08/02 14:04:33;;;;;;;4.7;2.1;;;;;;;25.04;36.87207;958.5647;;;;
2019/08/02 14:06:58;;;;;;;3.7;1.7;;;;;;;24.99;36.85645;958.5806;;;;
2019/08/02 14:09:23;;;;;;;6.6;1.7;;;;;;;25.13;37.0459;958.5119;;;;
2019/08/02 14:11:48;;;;;;;4.2;1.6;;;;;;;25.15;36.42871;958.5405;;;;
2019/08/02 14:14:14;;;;;;;2.8;1.7;;;;;;;25.32;36.70508;958.5496;;;;
2019/08/02 14:16:39;;;;;;;4.5;1.6;;;;;;;25.34;37.97949;958.5588;;;;
2019/08/02 14:19:04;;;;;;;4.6;1.8;;;;;;;25.49;36.45703;958.5477;;;;
2019/08/02 14:21:29;;;;;;;4.5;1.6;;;;;;;25.53;36.22168;958.5619;;;;
2019/08/02 14:23:54;;;;;;;3.8;1.6;;;;;;;25.33;36.18164;958.478;;;;
2019/08/02 14:26:19;;;;;;;2.9;1.8;;;;;;;25.4;36.65234;958.4194;;;;